createdAt,value
2019-02-05T00:01:34.074Z,98792.19
2019-02-05T00:03:35.170Z,98788.23
2019-02-05T00:05:36.788Z,98787.05
2019-02-05T00:07:38.376Z,98793.16
2019-02-05T00:09:40.030Z,98790.09
2019-02-05T00:11:41.700Z,98787.90
2019-02-05T00:13:43.317Z,98783.19
2019-02-05T00:15:44.972Z,98776.73
2019-02-05T00:17:46.588Z,98774.56
2019-02-05T00:19:48.175Z,98777.52
2019-02-05T00:21:49.815Z,98773.22
2019-02-05T00:23:51.421Z,98777.45
2019-02-05T00:25:53.025Z,98775.25
2019-02-05T00:27:54.653Z,98767.13
2019-02-05T00:29:56.279Z,98763.67
2019-02-05T00:31:57.922Z,98757.28
2019-02-05T00:33:59.521Z,98759.34
2019-02-05T00:36:01.121Z,98759.73
2019-02-05T00:38:02.803Z,98755.00
2019-02-05T00:40:04.409Z,98757.56
2019-02-05T00:42:06.053Z,98749.47
2019-02-05T00:44:07.653Z,98748.23
2019-02-05T00:46:09.254Z,98742.72
2019-02-05T00:48:10.891Z,98741.05
2019-02-05T00:50:12.495Z,98743.61
2019-02-05T00:52:14.158Z,98739.81
2019-02-05T00:54:15.762Z,98741.98
2019-02-05T00:56:17.957Z,98739.03
2019-02-05T00:58:19.041Z,98734.38
2019-02-05T01:00:20.670Z,98739.56
2019-02-05T01:02:22.370Z,98744.67
2019-02-05T01:04:24.031Z,98741.77
2019-02-05T01:06:25.640Z,98743.08
2019-02-05T01:08:27.237Z,98745.66
2019-02-05T01:10:28.892Z,98746.13
2019-02-05T01:12:30.565Z,98743.56
2019-02-05T01:14:32.179Z,98741.02
2019-02-05T01:16:33.783Z,98735.51
2019-02-05T01:18:35.385Z,98739.34
2019-02-05T01:20:37.046Z,98742.36
2019-02-05T01:22:38.672Z,98742.36
2019-02-05T01:24:40.379Z,98741.93
2019-02-05T01:26:41.952Z,98737.21
2019-02-05T01:28:43.575Z,98741.86
2019-02-05T01:30:45.236Z,98750.81
2019-02-05T01:32:46.881Z,98748.68
2019-02-05T01:34:48.495Z,98750.81
2019-02-05T01:36:50.097Z,98743.89
2019-02-05T01:38:51.793Z,98745.89
2019-02-05T01:40:53.407Z,98745.88
2019-02-05T01:42:55.017Z,98744.53
2019-02-05T01:44:56.649Z,98742.41
2019-02-05T01:46:58.307Z,98739.38
2019-02-05T01:48:59.993Z,98744.03
2019-02-05T01:51:01.558Z,98739.77
2019-02-05T01:53:03.191Z,98742.33
2019-02-05T01:55:04.801Z,98738.92
2019-02-05T01:57:06.418Z,98737.68
2019-02-05T01:59:08.050Z,98735.13
2019-02-05T02:01:09.668Z,98733.45
2019-02-05T02:03:11.376Z,98735.63
2019-02-05T02:05:13.039Z,98736.86
2019-02-05T02:07:14.690Z,98736.05
2019-02-05T02:09:16.289Z,98736.94
2019-02-05T02:11:17.890Z,98736.09
2019-02-05T02:13:19.542Z,98733.17
2019-02-05T02:15:21.135Z,98729.80
2019-02-05T02:17:22.735Z,98727.70
2019-02-05T02:19:24.375Z,98728.55
2019-02-05T02:21:25.981Z,98728.59
2019-02-05T02:23:27.708Z,98723.48
2019-02-05T02:25:29.240Z,98729.91
2019-02-05T02:27:30.842Z,98714.99
2019-02-05T02:29:32.456Z,98718.05
2019-02-05T02:31:34.058Z,98718.47
2019-02-05T02:33:35.661Z,98707.82
2019-02-05T02:35:37.273Z,98709.13
2019-02-05T02:37:38.917Z,98709.20
2019-02-05T02:39:40.574Z,98698.13
2019-02-05T02:41:42.175Z,98696.88
2019-02-05T02:43:43.781Z,98700.65
2019-02-05T02:45:45.385Z,98702.75
2019-02-05T02:47:47.039Z,98702.28
2019-02-05T02:49:48.756Z,98701.43
2019-02-05T02:51:50.348Z,98702.56
2019-02-05T02:53:51.959Z,98703.34
2019-02-05T02:55:53.582Z,98705.83
2019-02-05T02:57:55.251Z,98701.95
2019-02-05T02:59:56.854Z,98704.05
2019-02-05T03:01:58.452Z,98695.11
2019-02-05T03:04:00.048Z,98696.84
2019-02-05T03:06:01.667Z,98692.20
2019-02-05T03:08:03.275Z,98700.80
2019-02-05T03:10:04.877Z,98697.06
2019-02-05T03:12:06.500Z,98694.16
2019-02-05T03:14:08.133Z,98684.82
2019-02-05T03:16:09.757Z,98680.98
2019-02-05T03:18:11.394Z,98684.01
2019-02-05T03:20:13.016Z,98674.70
2019-02-05T03:22:14.625Z,98674.31
2019-02-05T03:24:16.287Z,98670.52
2019-02-05T03:26:17.944Z,98662.39
2019-02-05T03:28:19.556Z,98655.08
2019-02-05T03:30:21.227Z,98656.75
2019-02-05T03:32:22.842Z,98656.95
2019-02-05T03:34:24.473Z,98658.53
2019-02-05T03:36:26.122Z,98652.57
2019-02-05T03:38:27.740Z,98660.81
2019-02-05T03:40:29.380Z,98653.63
2019-02-05T03:42:30.997Z,98649.42
2019-02-05T03:44:32.614Z,98645.97
2019-02-05T03:46:34.268Z,98653.19
2019-02-05T03:48:35.901Z,98660.17
2019-02-05T03:50:37.527Z,98653.77
2019-02-05T03:52:39.177Z,98657.17
2019-02-05T03:54:40.821Z,98657.45
2019-02-05T03:56:42.440Z,98658.13
2019-02-05T03:58:44.065Z,98663.02
2019-02-05T04:00:45.704Z,98650.74
2019-02-05T04:02:47.406Z,98653.95
2019-02-05T04:04:49.013Z,98658.48
2019-02-05T04:06:50.670Z,98657.60
2019-02-05T04:08:52.310Z,98649.58
2019-02-05T04:10:53.925Z,98651.31
2019-02-05T04:12:55.569Z,98645.78
2019-02-05T04:14:57.181Z,98649.22
2019-02-05T04:16:58.786Z,98611.58
2019-02-05T04:19:00.470Z,98643.72
2019-02-05T04:21:02.089Z,98633.97
2019-02-05T04:23:03.715Z,98626.34
2019-02-05T04:25:05.352Z,98638.72
2019-02-05T04:27:07.002Z,98635.74
2019-02-05T04:29:08.636Z,98631.52
2019-02-05T04:31:10.289Z,98632.44
2019-02-05T04:33:11.934Z,98633.33
2019-02-05T04:35:13.537Z,98632.47
2019-02-05T04:37:15.162Z,98629.95
2019-02-05T04:39:16.794Z,98634.66
2019-02-05T04:41:18.393Z,98633.00
2019-02-05T04:43:19.988Z,98638.95
2019-02-05T04:45:33.381Z,98628.31
2019-02-05T04:47:23.236Z,98627.92
2019-02-05T04:49:24.846Z,98624.09
2019-02-05T04:51:26.503Z,98624.97
2019-02-05T04:53:28.110Z,98628.84
2019-02-05T04:55:29.728Z,98635.22
2019-02-05T04:57:31.382Z,98632.66
2019-02-05T04:59:32.980Z,98634.83
2019-02-05T05:01:34.659Z,98638.66
2019-02-05T05:03:36.289Z,98639.51
2019-02-05T05:05:37.927Z,98645.92
2019-02-05T05:07:39.530Z,98642.58
2019-02-05T05:09:41.293Z,98643.45
2019-02-05T05:11:43.017Z,98644.80
2019-02-05T05:13:44.492Z,98645.73
2019-02-05T05:15:46.099Z,98656.42
2019-02-05T05:17:47.746Z,98659.87
2019-02-05T05:19:49.368Z,98648.88
2019-02-05T05:21:50.993Z,98664.20
2019-02-05T05:23:52.625Z,98652.75
2019-02-05T05:25:54.242Z,98650.59
2019-02-05T05:27:55.861Z,98652.75
2019-02-05T05:29:57.494Z,98651.87
2019-02-05T05:31:59.115Z,98653.13
2019-02-05T05:34:00.727Z,98653.98
2019-02-05T05:36:02.343Z,98653.50
2019-02-05T05:38:03.963Z,98656.02
2019-02-05T05:40:05.583Z,98665.36
2019-02-05T05:42:07.232Z,98659.31
2019-02-05T05:44:09.588Z,98666.92
2019-02-05T05:46:10.489Z,98674.06
2019-02-05T05:48:12.113Z,98672.73
2019-02-05T05:50:13.709Z,98676.47
2019-02-05T05:52:15.344Z,98677.27
2019-02-05T05:54:16.939Z,98681.03
2019-02-05T05:56:18.558Z,98697.57
2019-02-05T05:58:23.031Z,98694.13
2019-02-05T06:00:21.833Z,98696.66
2019-02-05T06:02:23.478Z,98705.59
2019-02-05T06:04:25.093Z,98707.72
2019-02-05T06:06:26.693Z,98707.33
2019-02-05T06:08:28.337Z,98701.83
2019-02-05T06:10:29.985Z,98694.20
2019-02-05T06:12:31.581Z,98684.86
2019-02-05T06:14:33.224Z,98693.41
2019-02-05T06:16:34.839Z,98693.86
2019-02-05T06:18:36.458Z,98703.26
2019-02-05T06:20:38.063Z,98695.59
2019-02-05T06:22:39.681Z,98702.44
2019-02-05T06:24:41.367Z,98705.02
2019-02-05T06:26:42.982Z,98693.09
2019-02-05T06:28:44.589Z,98693.55
2019-02-05T06:30:46.191Z,98687.20
2019-02-05T06:32:47.895Z,98690.20
2019-02-05T06:34:49.502Z,98696.13
2019-02-05T06:36:51.106Z,98704.25
2019-02-05T06:38:52.754Z,98697.86
2019-02-05T06:40:54.420Z,98690.23
2019-02-05T06:42:56.019Z,98688.98
2019-02-05T06:44:57.625Z,98691.09
2019-02-05T06:46:59.246Z,98688.56
2019-02-05T06:49:01.081Z,98637.31
2019-02-05T06:51:02.759Z,98665.64
2019-02-05T06:53:04.385Z,98668.17
2019-02-05T06:55:05.997Z,98665.61
2019-02-05T06:57:07.655Z,98663.09
2019-02-05T06:59:09.267Z,98667.34
2019-02-05T07:01:10.876Z,98661.81
2019-02-05T07:03:12.495Z,98671.57
2019-02-05T07:05:14.353Z,98668.63
2019-02-05T07:07:20.484Z,98661.81
2019-02-05T07:09:22.433Z,98656.31
2019-02-05T07:11:24.386Z,98656.31
2019-02-05T07:13:26.041Z,98654.22
2019-02-05T07:15:27.642Z,98665.24
2019-02-05T07:17:29.245Z,98664.42
2019-02-05T07:19:30.884Z,98661.84
2019-02-05T07:21:32.540Z,98651.18
2019-02-05T07:23:34.202Z,98657.11
2019-02-05T07:25:35.952Z,98668.14
2019-02-05T07:27:37.570Z,98660.42
2019-02-05T07:29:39.173Z,98661.67
2019-02-05T07:31:40.821Z,98671.39
2019-02-05T07:33:42.450Z,98659.05
2019-02-05T07:35:44.074Z,98662.85
2019-02-05T07:37:45.742Z,98666.23
2019-02-05T07:39:47.391Z,98660.23
2019-02-05T07:41:49.019Z,98667.47
2019-02-05T07:43:50.678Z,98674.31
2019-02-05T07:45:52.292Z,98667.53
2019-02-05T07:47:53.898Z,98675.20
2019-02-05T07:49:55.553Z,98676.05
2019-02-05T07:51:57.176Z,98676.92
2019-02-05T07:53:58.854Z,98676.53
2019-02-05T07:56:00.482Z,98680.36
2019-02-05T07:58:02.090Z,98678.27
2019-02-05T08:00:03.712Z,98671.91
2019-02-05T08:02:05.344Z,98677.44
2019-02-05T08:04:06.981Z,98676.16
2019-02-05T08:06:08.612Z,98672.79
2019-02-05T08:08:10.221Z,98671.52
2019-02-05T08:10:11.841Z,98674.09
2019-02-05T08:12:13.461Z,98674.09
2019-02-05T08:14:15.073Z,98683.45
2019-02-05T08:16:16.738Z,98672.84
2019-02-05T08:18:18.392Z,98674.98
2019-02-05T08:20:20.055Z,98675.42
2019-02-05T08:22:21.728Z,98667.73
2019-02-05T08:24:23.342Z,98676.28
2019-02-05T08:26:24.990Z,98673.73
2019-02-05T08:28:26.631Z,98669.89
2019-02-05T08:30:28.250Z,98672.45
2019-02-05T08:32:29.873Z,98659.69
2019-02-05T08:34:31.520Z,98665.67
2019-02-05T08:36:33.127Z,98670.33
2019-02-05T08:38:34.763Z,98668.62
2019-02-05T08:40:36.393Z,98663.94
2019-02-05T08:42:38.049Z,98671.57
2019-02-05T08:44:39.680Z,98674.55
2019-02-05T08:46:41.329Z,98680.48
2019-02-05T08:48:42.952Z,98682.17
2019-02-05T08:50:44.658Z,98683.42
2019-02-05T08:52:46.265Z,98679.54
2019-02-05T08:54:47.869Z,98684.59
2019-02-05T08:56:49.488Z,98698.57
2019-02-05T08:58:51.172Z,98681.88
2019-02-05T09:00:52.778Z,98684.38
2019-02-05T09:02:54.400Z,98688.96
2019-02-05T09:04:56.013Z,98684.25
2019-02-05T09:06:57.666Z,98691.84
2019-02-05T09:08:59.289Z,98686.27
2019-02-05T09:11:01.026Z,98699.48
2019-02-05T09:13:02.668Z,98690.17
2019-02-05T09:15:04.325Z,98689.35
2019-02-05T09:17:05.971Z,98690.20
2019-02-05T09:19:07.575Z,98698.75
2019-02-05T09:21:09.211Z,98696.27
2019-02-05T09:23:13.987Z,98695.44
2019-02-05T09:25:12.550Z,98701.46
2019-02-05T09:27:14.166Z,98704.90
2019-02-05T09:29:15.840Z,98704.50
2019-02-05T09:31:17.625Z,98705.84
2019-02-05T09:33:19.224Z,98701.19
2019-02-05T09:35:20.852Z,98705.02
2019-02-05T09:37:22.462Z,98704.65
2019-02-05T09:39:24.113Z,98702.52
2019-02-05T09:41:25.775Z,98703.85
2019-02-05T09:43:27.405Z,98708.98
2019-02-05T09:45:29.049Z,98710.26
2019-02-05T09:47:30.705Z,98713.22
2019-02-05T09:49:32.327Z,98711.03
2019-02-05T09:51:33.990Z,98717.81
2019-02-05T09:53:35.597Z,98724.62
2019-02-05T09:55:37.305Z,98732.68
2019-02-05T09:57:38.940Z,98733.47
2019-02-05T09:59:45.299Z,98741.14
2019-02-05T10:01:42.250Z,98741.56
2019-02-05T10:03:43.908Z,98736.88
2019-02-05T10:05:45.517Z,98735.15
2019-02-05T10:07:47.135Z,98737.28
2019-02-05T10:09:48.742Z,98740.68
2019-02-05T10:11:50.346Z,98738.16
2019-02-05T10:13:51.985Z,98736.48
2019-02-05T10:15:53.624Z,98729.30
2019-02-05T10:17:55.248Z,98725.89
2019-02-05T10:19:56.915Z,98722.52
2019-02-05T10:21:58.528Z,98725.50
2019-02-05T10:24:00.133Z,98720.79
2019-02-05T10:26:01.788Z,98724.14
2019-02-05T10:28:03.409Z,98716.36
2019-02-05T10:30:05.027Z,98715.42
2019-02-05T10:32:06.772Z,98716.70
2019-02-05T10:34:08.345Z,98712.41
2019-02-05T10:36:09.954Z,98714.96
2019-02-05T10:38:11.569Z,98708.16
2019-02-05T10:40:13.213Z,98711.13
2019-02-05T10:42:14.853Z,98705.63
2019-02-05T10:44:16.511Z,98706.05
2019-02-05T10:46:18.127Z,98707.79
2019-02-05T10:48:19.763Z,98703.95
2019-02-05T10:50:21.379Z,98698.84
2019-02-05T10:52:22.994Z,98700.61
2019-02-05T10:54:24.610Z,98707.03
2019-02-05T10:56:26.217Z,98700.67
2019-02-05T10:58:27.863Z,98710.92
2019-02-05T11:00:29.467Z,98712.64
2019-02-05T11:02:31.073Z,98716.93
2019-02-05T11:04:32.689Z,98718.20
2019-02-05T11:06:34.296Z,98709.75
2019-02-05T11:08:35.920Z,98713.19
2019-02-05T11:10:37.567Z,98714.46
2019-02-05T11:12:39.186Z,98713.21
2019-02-05T11:14:40.817Z,98705.16
2019-02-05T11:16:42.421Z,98719.20
2019-02-05T11:18:44.038Z,98712.84
2019-02-05T11:20:45.640Z,98709.44
2019-02-05T11:22:47.267Z,98719.25
2019-02-05T11:24:48.992Z,98708.66
2019-02-05T11:26:50.585Z,98717.27
2019-02-05T11:28:52.175Z,98705.86
2019-02-05T11:30:53.772Z,98704.75
2019-02-05T11:32:55.383Z,98709.03
2019-02-05T11:34:57.003Z,98710.34
2019-02-05T11:36:58.664Z,98708.25
2019-02-05T11:39:00.313Z,98709.02
2019-02-05T11:41:01.924Z,98709.11
2019-02-05T11:43:03.572Z,98709.78
2019-02-05T11:45:05.198Z,98708.94
2019-02-05T11:47:06.810Z,98669.15
2019-02-05T11:49:08.456Z,98703.15
2019-02-05T11:51:10.092Z,98710.66
2019-02-05T11:53:11.754Z,98704.94
2019-02-05T11:55:13.421Z,98706.33
2019-02-05T11:57:15.083Z,98707.08
2019-02-05T11:59:16.843Z,98709.28
2019-02-05T12:01:18.596Z,98716.97
2019-02-05T12:03:20.239Z,98714.25
2019-02-05T12:05:21.872Z,98675.48
2019-02-05T12:07:23.496Z,98707.52
2019-02-05T12:09:25.124Z,98717.82
2019-02-05T12:11:26.735Z,98710.61
2019-02-05T12:13:28.367Z,98715.36
2019-02-05T12:15:30.024Z,98706.34
2019-02-05T12:17:31.641Z,98702.02
2019-02-05T12:19:33.265Z,98708.34
2019-02-05T12:21:34.935Z,98701.59
2019-02-05T12:23:36.560Z,98703.24
2019-02-05T12:25:38.194Z,98708.86
2019-02-05T12:27:39.845Z,98708.19
2019-02-05T12:29:41.449Z,98675.90
2019-02-05T12:31:43.058Z,98709.20
2019-02-05T12:33:44.748Z,98701.47
2019-02-05T12:35:46.423Z,98707.45
2019-02-05T12:37:48.171Z,98698.09
2019-02-05T12:39:49.835Z,98698.77
2019-02-05T12:41:51.460Z,98699.03
2019-02-05T12:43:53.115Z,98699.51
2019-02-05T12:45:54.742Z,98699.94
2019-02-05T12:47:56.391Z,98686.27
2019-02-05T12:49:57.984Z,98688.78
2019-02-05T12:51:59.616Z,98682.44
2019-02-05T12:54:01.239Z,98678.31
2019-02-05T12:56:02.934Z,98669.20
2019-02-05T12:58:04.531Z,98686.59
2019-02-05T13:00:06.153Z,98678.15
2019-02-05T13:02:07.753Z,98677.73
2019-02-05T13:04:09.431Z,98682.05
2019-02-05T13:06:11.059Z,98681.23
2019-02-05T13:08:12.698Z,98682.13
2019-02-05T13:10:14.284Z,98689.42
2019-02-05T13:12:15.877Z,98689.87
2019-02-05T13:14:18.172Z,98696.28
2019-02-05T13:16:19.772Z,98696.28
2019-02-05T13:18:21.398Z,98703.14
2019-02-05T13:20:22.989Z,98704.00
2019-02-05T13:22:24.886Z,98697.64
2019-02-05T13:24:26.499Z,98695.52
2019-02-05T13:26:28.105Z,98693.80
2019-02-05T13:28:29.713Z,98689.12
2019-02-05T13:30:31.409Z,98693.80
2019-02-05T13:32:33.012Z,98690.83
2019-02-05T13:34:34.631Z,98698.08
2019-02-05T13:36:36.287Z,98690.82
2019-02-05T13:38:37.894Z,98690.39
2019-02-05T13:40:39.487Z,98684.47
2019-02-05T13:42:41.120Z,98686.18
2019-02-05T13:44:42.729Z,98677.31
2019-02-05T13:46:44.362Z,98680.81
2019-02-05T13:48:46.014Z,98679.17
2019-02-05T13:50:47.623Z,98677.94
2019-02-05T13:52:50.573Z,98679.27
2019-02-05T13:54:52.221Z,98673.30
2019-02-05T13:56:53.964Z,98672.45
2019-02-05T13:58:55.760Z,98671.59
2019-02-05T14:00:57.520Z,98677.91
2019-02-05T14:02:59.169Z,98676.12
2019-02-05T14:05:00.866Z,98675.22
2019-02-05T14:07:02.498Z,98676.89
2019-02-05T14:09:10.692Z,98681.48
2019-02-05T14:11:05.782Z,98682.67
2019-02-05T14:13:07.389Z,98680.84
2019-02-05T14:15:08.991Z,98670.47
2019-02-05T14:17:10.612Z,98677.69
2019-02-05T14:19:12.326Z,98678.11
2019-02-05T14:21:13.909Z,98679.77
2019-02-05T14:23:15.532Z,98675.94
2019-02-05T14:25:17.172Z,98667.02
2019-02-05T14:27:18.809Z,98676.36
2019-02-05T14:29:20.427Z,98675.04
2019-02-05T14:31:31.143Z,98675.47
2019-02-05T14:33:23.687Z,98661.58
2019-02-05T14:35:25.303Z,98678.48
2019-02-05T14:37:26.910Z,98681.81
2019-02-05T14:39:28.575Z,98686.98
2019-02-05T14:41:30.164Z,98689.67
2019-02-05T14:43:31.779Z,98697.05
2019-02-05T14:45:33.425Z,98692.05
2019-02-05T14:47:35.073Z,98695.10
2019-02-05T14:49:36.686Z,98691.86
2019-02-05T14:51:38.312Z,98690.84
2019-02-05T14:53:39.917Z,98688.08
2019-02-05T14:55:41.539Z,98693.11
2019-02-05T14:57:43.141Z,98694.86
2019-02-05T14:59:44.775Z,98699.08
2019-02-05T15:01:46.463Z,98687.39
2019-02-05T15:03:48.065Z,98696.08
2019-02-05T15:05:49.661Z,98694.01
2019-02-05T15:07:51.301Z,98702.02
2019-02-05T15:09:52.929Z,98696.03
2019-02-05T15:11:54.552Z,98696.22
2019-02-05T15:13:56.251Z,98701.64
2019-02-05T15:15:58.596Z,98704.83
2019-02-05T15:18:00.188Z,98711.20
2019-02-05T15:20:01.788Z,98708.59
2019-02-05T15:22:03.403Z,98716.66
2019-02-05T15:24:05.079Z,98718.62
2019-02-05T15:26:06.693Z,98722.64
2019-02-05T15:28:08.309Z,98719.59
2019-02-05T15:30:09.928Z,98726.74
2019-02-05T15:32:11.543Z,98738.22
2019-02-05T15:34:13.214Z,98728.26
2019-02-05T15:36:16.181Z,98730.00
2019-02-05T15:38:17.804Z,98731.00
2019-02-05T15:40:19.445Z,98729.51
2019-02-05T15:42:21.055Z,98740.12
2019-02-05T15:44:22.833Z,98747.54
2019-02-05T15:46:24.674Z,98739.27
2019-02-05T15:48:26.351Z,98738.80
2019-02-05T15:50:28.796Z,98738.83
2019-02-05T15:52:30.531Z,98723.67
2019-02-05T15:54:32.164Z,98740.25
2019-02-05T15:56:33.806Z,98739.50
2019-02-05T15:58:35.606Z,98737.36
2019-02-05T16:00:37.277Z,98708.98
2019-02-05T16:02:38.881Z,98740.20
2019-02-05T16:04:40.507Z,98733.67
2019-02-05T16:06:42.188Z,98745.06
2019-02-05T16:08:44.040Z,98747.98
2019-02-05T16:10:45.658Z,98742.66
2019-02-05T16:12:47.310Z,98745.05
2019-02-05T16:14:48.978Z,98748.84
2019-02-05T16:16:50.586Z,98745.22
2019-02-05T16:18:53.273Z,98752.17
2019-02-05T16:20:53.917Z,98744.47
2019-02-05T16:22:55.529Z,98757.06
2019-02-05T16:24:57.158Z,98754.35
2019-02-05T16:26:58.759Z,98755.82
2019-02-05T16:29:00.351Z,98762.05
2019-02-05T16:31:01.983Z,98758.75
2019-02-05T16:33:03.591Z,98767.72
2019-02-05T16:35:05.203Z,98760.38
2019-02-05T16:37:06.847Z,98761.27
2019-02-05T16:39:08.518Z,98764.11
2019-02-05T16:41:10.116Z,98766.95
2019-02-05T16:43:11.768Z,98765.48
2019-02-05T16:45:13.373Z,98768.08
2019-02-05T16:47:15.051Z,98775.13
2019-02-05T16:49:16.645Z,98772.44
2019-02-05T16:51:18.255Z,98767.80
2019-02-05T16:53:19.891Z,98772.66
2019-02-05T16:55:21.508Z,98775.45
2019-02-05T16:57:23.175Z,98778.31
2019-02-05T16:59:24.791Z,98776.94
2019-02-05T17:01:26.408Z,98759.53
2019-02-05T17:03:28.010Z,98776.40
2019-02-05T17:05:29.615Z,98777.82
2019-02-05T17:07:31.210Z,98786.27
2019-02-05T17:09:32.824Z,98783.13
2019-02-05T17:11:34.460Z,98783.86
2019-02-05T17:13:36.050Z,98784.56
2019-02-05T17:15:37.751Z,98790.98
2019-02-05T17:17:39.374Z,98786.62
2019-02-05T17:19:41.025Z,98795.34
2019-02-05T17:21:42.643Z,98789.84
2019-02-05T17:23:44.298Z,98787.09
2019-02-05T17:25:45.930Z,98797.59
2019-02-05T17:27:47.549Z,98799.16
2019-02-05T17:29:50.181Z,98788.41
2019-02-05T17:31:50.832Z,98791.31
2019-02-05T17:33:52.471Z,98795.75
2019-02-05T17:35:54.102Z,98788.41
2019-02-05T17:37:55.776Z,98795.91
2019-02-05T17:39:57.697Z,98792.87
2019-02-05T17:41:59.336Z,98798.75
2019-02-05T17:44:01.114Z,98796.47
2019-02-05T17:46:05.680Z,98803.35
2019-02-05T17:48:04.405Z,98784.16
2019-02-05T17:50:06.085Z,98804.69
2019-02-05T17:52:07.704Z,98813.42
2019-02-05T17:54:09.305Z,98811.17
2019-02-05T17:56:10.962Z,98808.20
2019-02-05T17:58:12.567Z,98814.19
2019-02-05T18:00:14.173Z,98816.16
2019-02-05T18:02:15.786Z,98808.93
2019-02-05T18:04:17.390Z,98808.14
2019-02-05T18:06:19.042Z,98804.11
2019-02-05T18:08:20.693Z,98810.00
2019-02-05T18:10:22.386Z,98810.09
2019-02-05T18:12:23.991Z,98814.27
2019-02-05T18:14:25.661Z,98814.89
2019-02-05T18:16:27.283Z,98813.13
2019-02-05T18:18:28.911Z,98822.67
2019-02-05T18:20:30.767Z,98820.29
2019-02-05T18:22:32.413Z,98820.47
2019-02-05T18:24:34.017Z,98819.93
2019-02-05T18:26:35.659Z,98821.00
2019-02-05T18:28:37.308Z,98830.06
2019-02-05T18:30:38.942Z,98832.38
2019-02-05T18:32:40.552Z,98827.45
2019-02-05T18:34:42.153Z,98834.61
2019-02-05T18:36:43.856Z,98831.09
2019-02-05T18:38:45.452Z,98829.76
2019-02-05T18:40:47.112Z,98830.52
2019-02-05T18:42:48.732Z,98833.23
2019-02-05T18:44:50.344Z,98823.81
2019-02-05T18:46:51.992Z,98827.63
2019-02-05T18:49:04.689Z,98828.48
2019-02-05T18:50:56.402Z,98831.47
2019-02-05T18:52:58.050Z,98832.60
2019-02-05T18:54:59.649Z,98837.04
2019-02-05T18:57:01.240Z,98838.61
2019-02-05T18:59:02.892Z,98843.10
2019-02-05T19:01:04.573Z,98838.97
2019-02-05T19:03:14.963Z,98838.69
2019-02-05T19:05:07.873Z,98837.26
2019-02-05T19:07:09.470Z,98838.57
2019-02-05T19:09:11.082Z,98838.43
2019-02-05T19:11:12.842Z,98838.13
2019-02-05T19:13:14.398Z,98846.88
2019-02-05T19:15:16.050Z,98840.66
2019-02-05T19:17:17.672Z,98844.36
2019-02-05T19:19:19.275Z,98843.50
2019-02-05T19:21:20.872Z,98842.69
2019-02-05T19:23:22.583Z,98846.53
2019-02-05T19:25:26.687Z,98847.44
2019-02-05T19:27:28.306Z,98850.52
2019-02-05T19:29:29.961Z,98848.42
2019-02-05T19:31:31.617Z,98844.20
2019-02-05T19:33:33.208Z,98844.34
2019-02-05T19:35:34.828Z,98849.94
2019-02-05T19:37:36.423Z,98842.73
2019-02-05T19:39:38.027Z,98844.89
2019-02-05T19:41:39.644Z,98863.64
2019-02-05T19:43:41.300Z,98846.47
2019-02-05T19:45:49.058Z,98850.27
2019-02-05T19:47:51.585Z,98852.41
2019-02-05T19:49:53.157Z,98846.81
2019-02-05T19:51:54.790Z,98844.67
2019-02-05T19:53:56.477Z,98846.45
2019-02-05T19:55:58.124Z,98846.42
2019-02-05T19:57:59.746Z,98843.23
2019-02-05T20:00:01.833Z,98847.08
2019-02-05T20:02:03.434Z,98850.19
2019-02-05T20:04:05.053Z,98850.91
2019-02-05T20:06:06.722Z,98845.30
2019-02-05T20:08:08.348Z,98837.23
2019-02-05T20:10:09.986Z,98843.93
2019-02-05T20:12:11.590Z,98842.26
2019-02-05T20:14:13.190Z,98842.59
2019-02-05T20:16:14.823Z,98842.55
2019-02-05T20:18:16.422Z,98847.53
2019-02-05T20:20:18.924Z,98852.13
2019-02-05T20:22:20.632Z,98847.81
2019-02-05T20:24:22.239Z,98850.48
2019-02-05T20:26:23.852Z,98851.37
2019-02-05T20:28:25.515Z,98860.41
2019-02-05T20:30:27.189Z,98851.80
2019-02-05T20:32:28.798Z,98851.91
2019-02-05T20:34:30.447Z,98854.94
2019-02-05T20:36:32.055Z,98846.34
2019-02-05T20:38:33.755Z,98853.17
2019-02-05T20:40:35.388Z,98853.98
2019-02-05T20:42:37.004Z,98850.52
2019-02-05T20:44:38.657Z,98853.89
2019-02-05T20:46:40.373Z,98852.84
2019-02-05T20:48:42.000Z,98850.76
2019-02-05T20:50:43.665Z,98854.22
2019-02-05T20:52:45.253Z,98845.30
2019-02-05T20:54:46.919Z,98853.84
2019-02-05T20:56:48.518Z,98851.84
2019-02-05T20:58:50.136Z,98855.34
2019-02-05T21:00:51.745Z,98853.27
2019-02-05T21:02:53.380Z,98854.62
2019-02-05T21:04:55.039Z,98858.44
2019-02-05T21:06:59.604Z,98862.70
2019-02-05T21:08:58.339Z,98863.56
2019-02-05T21:11:00.039Z,98861.47
2019-02-05T21:13:01.631Z,98861.04
2019-02-05T21:15:03.243Z,98865.00
2019-02-05T21:17:04.865Z,98864.20
2019-02-05T21:19:06.554Z,98866.08
2019-02-05T21:21:08.183Z,98869.89
2019-02-05T21:23:09.884Z,98864.52
2019-02-05T21:25:11.495Z,98837.69
2019-02-05T21:27:13.134Z,98866.36
2019-02-05T21:29:14.790Z,98865.03
2019-02-05T21:31:16.407Z,98865.85
2019-02-05T21:33:19.020Z,98860.73
2019-02-05T21:35:19.683Z,98862.09
2019-02-05T21:37:21.295Z,98858.02
2019-02-05T21:39:22.901Z,98856.63
2019-02-05T21:41:24.516Z,98859.94
2019-02-05T21:43:26.150Z,98859.69
2019-02-05T21:45:27.764Z,98858.52
2019-02-05T21:47:29.402Z,98855.59
2019-02-05T21:49:31.733Z,98862.88
2019-02-05T21:51:40.873Z,98865.86
2019-02-05T21:53:35.062Z,98887.63
2019-02-05T21:55:37.289Z,98859.13
2019-02-05T21:57:38.912Z,98856.16
2019-02-05T21:59:40.504Z,98860.87
2019-02-05T22:01:42.113Z,98852.77
2019-02-05T22:03:43.805Z,98857.09
2019-02-05T22:05:45.466Z,98860.08
2019-02-05T22:07:47.109Z,98855.42
2019-02-05T22:09:48.805Z,98862.67
2019-02-05T22:11:50.410Z,98859.69
2019-02-05T22:13:52.043Z,98858.41
2019-02-05T22:15:53.657Z,98857.55
2019-02-05T22:17:55.292Z,98863.91
2019-02-05T22:19:56.940Z,98857.48
2019-02-05T22:21:58.584Z,98859.20
2019-02-05T22:24:00.242Z,98851.55
2019-02-05T22:26:01.862Z,98849.94
2019-02-05T22:28:03.511Z,98864.80
2019-02-05T22:30:05.322Z,98862.23
2019-02-05T22:32:06.973Z,98867.81
2019-02-05T22:34:08.600Z,98867.81
2019-02-05T22:36:10.232Z,98861.84
2019-02-05T22:38:11.866Z,98868.69
2019-02-05T22:40:13.493Z,98864.86
2019-02-05T22:42:15.102Z,98869.12
2019-02-05T22:44:16.791Z,98876.36
2019-02-05T22:46:18.447Z,98872.98
2019-02-05T22:48:20.048Z,98874.69
2019-02-05T22:50:21.662Z,98873.83
2019-02-05T22:52:25.848Z,98875.14
2019-02-05T22:54:24.967Z,98879.83
2019-02-05T22:56:26.598Z,98876.45
2019-02-05T22:58:28.260Z,98876.02
2019-02-05T23:00:29.863Z,98873.45
2019-02-05T23:02:31.501Z,98865.82
2019-02-05T23:04:33.155Z,98875.19
2019-02-05T23:06:34.749Z,98870.93
2019-02-05T23:08:36.380Z,98872.66
2019-02-05T23:10:37.982Z,98879.52
2019-02-05T23:12:39.604Z,98873.52
2019-02-05T23:14:41.221Z,98873.37
2019-02-05T23:16:42.839Z,98868.63
2019-02-05T23:18:44.478Z,98872.86
2019-02-05T23:20:46.095Z,98871.16
2019-02-05T23:22:47.702Z,98874.17
2019-02-05T23:24:49.345Z,98877.58
2019-02-05T23:26:50.945Z,98878.43
2019-02-05T23:28:52.549Z,98872.92
2019-02-05T23:30:54.215Z,98878.92
2019-02-05T23:32:55.835Z,98884.00
2019-02-05T23:35:02.351Z,98877.58
2019-02-05T23:36:59.154Z,98883.77
2019-02-05T23:39:00.767Z,98884.38
2019-02-05T23:41:02.373Z,98881.72
2019-02-05T23:43:04.059Z,98882.55
2019-02-05T23:45:06.314Z,98882.09
2019-02-05T23:47:07.936Z,98891.48
2019-02-05T23:49:09.546Z,98886.80